sensor_id;sensor_type;location;lat;lon;timestamp;P1;P2;P0
70243;PMS7003;57634;51.136;17.024;2023-03-19T00:03:02;16;16;12
70243;PMS7003;57634;51.136;17.024;2023-03-19T00:06:03;18;17;11
70243;PMS7003;57634;51.136;17.024;2023-03-19T00:09:05;18;14;9
70243;PMS7003;57634;51.136;17.024;2023-03-19T00:12:07;17;15;11
70243;PMS7003;57634;51.136;17.024;2023-03-19T00:15:10;17;17;11
70243;PMS7003;57634;51.136;17.024;2023-03-19T00:18:14;20;16;11
70243;PMS7003;57634;51.136;17.024;2023-03-19T00:21:16;14;13;10
70243;PMS7003;57634;51.136;17.024;2023-03-19T00:24:17;20;16;11
70243;PMS7003;57634;51.136;17.024;2023-03-19T00:27:18;18;15;10
70243;PMS7003;57634;51.136;17.024;2023-03-19T00:30:20;14;13;8
70243;PMS7003;57634;51.136;17.024;2023-03-19T00:33:22;15;15;11
70243;PMS7003;57634;51.136;17.024;2023-03-19T00:36:24;17;16;11
70243;PMS7003;57634;51.136;17.024;2023-03-19T00:39:27;19;17;13
70243;PMS7003;57634;51.136;17.024;2023-03-19T00:42:54;17;15;10
70243;PMS7003;57634;51.136;17.024;2023-03-19T00:45:55;20;18;11
70243;PMS7003;57634;51.136;17.024;2023-03-19T00:48:57;18;18;13
70243;PMS7003;57634;51.136;17.024;2023-03-19T00:54:13;18;16;11
70243;PMS7003;57634;51.136;17.024;2023-03-19T00:57:14;19;15;11
70243;PMS7003;57634;51.136;17.024;2023-03-19T01:00:17;20;17;12
70243;PMS7003;57634;51.136;17.024;2023-03-19T01:03:19;20;17;12
70243;PMS7003;57634;51.136;17.024;2023-03-19T01:06:21;18;15;10
70243;PMS7003;57634;51.136;17.024;2023-03-19T01:09:23;18;17;10
70243;PMS7003;57634;51.136;17.024;2023-03-19T01:12:25;22;19;13
70243;PMS7003;57634;51.136;17.024;2023-03-19T01:15:26;22;19;14
70243;PMS7003;57634;51.136;17.024;2023-03-19T01:18:27;19;17;12
70243;PMS7003;57634;51.136;17.024;2023-03-19T01:21:29;18;17;12
70243;PMS7003;57634;51.136;17.024;2023-03-19T01:24:31;20;17;13
70243;PMS7003;57634;51.136;17.024;2023-03-19T01:27:32;26;20;13
70243;PMS7003;57634;51.136;17.024;2023-03-19T01:30:33;20;18;12
70243;PMS7003;57634;51.136;17.024;2023-03-19T01:34:02;18;17;13
70243;PMS7003;57634;51.136;17.024;2023-03-19T01:37:04;19;15;10
70243;PMS7003;57634;51.136;17.024;2023-03-19T01:40:06;18;14;9
70243;PMS7003;57634;51.136;17.024;2023-03-19T01:49:34;21;19;14
70243;PMS7003;57634;51.136;17.024;2023-03-19T01:52:35;22;18;12
70243;PMS7003;57634;51.136;17.024;2023-03-19T01:55:38;22;17;11
70243;PMS7003;57634;51.136;17.024;2023-03-19T01:59:13;21;18;12
70243;PMS7003;57634;51.136;17.024;2023-03-19T02:05:35;21;18;12
70243;PMS7003;57634;51.136;17.024;2023-03-19T02:08:38;21;18;11
70243;PMS7003;57634;51.136;17.024;2023-03-19T02:11:41;20;18;12
70243;PMS7003;57634;51.136;17.024;2023-03-19T02:14:43;27;19;14
70243;PMS7003;57634;51.136;17.024;2023-03-19T02:17:44;21;19;13
70243;PMS7003;57634;51.136;17.024;2023-03-19T02:20:49;23;19;12
70243;PMS7003;57634;51.136;17.024;2023-03-19T02:24:24;24;19;14
70243;PMS7003;57634;51.136;17.024;2023-03-19T02:27:28;20;18;12
70243;PMS7003;57634;51.136;17.024;2023-03-19T02:30:31;23;21;13
70243;PMS7003;57634;51.136;17.024;2023-03-19T02:33:34;22;20;13
70243;PMS7003;57634;51.136;17.024;2023-03-19T02:36:37;18;16;11
70243;PMS7003;57634;51.136;17.024;2023-03-19T02:42:56;23;22;16
70243;PMS7003;57634;51.136;17.024;2023-03-19T02:45:57;20;20;13
70243;PMS7003;57634;51.136;17.024;2023-03-19T02:48:59;21;21;14
70243;PMS7003;57634;51.136;17.024;2023-03-19T02:52:26;21;19;13
70243;PMS7003;57634;51.136;17.024;2023-03-19T02:55:28;20;18;13
70243;PMS7003;57634;51.136;17.024;2023-03-19T02:58:29;19;18;12
70243;PMS7003;57634;51.136;17.024;2023-03-19T03:01:30;22;20;14
70243;PMS7003;57634;51.136;17.024;2023-03-19T03:04:32;22;20;14
70243;PMS7003;57634;51.136;17.024;2023-03-19T03:07:36;24;21;13
70243;PMS7003;57634;51.136;17.024;2023-03-19T03:10:40;21;18;12
70243;PMS7003;57634;51.136;17.024;2023-03-19T03:13:42;20;19;12
70243;PMS7003;57634;51.136;17.024;2023-03-19T03:16:44;19;19;13
70243;PMS7003;57634;51.136;17.024;2023-03-19T03:19:45;24;22;14
70243;PMS7003;57634;51.136;17.024;2023-03-19T03:22:47;20;18;12
70243;PMS7003;57634;51.136;17.024;2023-03-19T03:25:49;20;17;12
70243;PMS7003;57634;51.136;17.024;2023-03-19T03:28:51;26;22;14
70243;PMS7003;57634;51.136;17.024;2023-03-19T03:32:19;24;21;14
70243;PMS7003;57634;51.136;17.024;2023-03-19T03:35:21;23;21;13
70243;PMS7003;57634;51.136;17.024;2023-03-19T03:38:23;19;17;13
70243;PMS7003;57634;51.136;17.024;2023-03-19T03:41:25;24;21;15
70243;PMS7003;57634;51.136;17.024;2023-03-19T03:44:26;21;19;13
70243;PMS7003;57634;51.136;17.024;2023-03-19T03:47:27;22;20;13
70243;PMS7003;57634;51.136;17.024;2023-03-19T03:50:28;8;5;1
70243;PMS7003;57634;51.136;17.024;2023-03-19T03:53:30;22;19;10
70243;PMS7003;57634;51.136;17.024;2023-03-19T03:56:32;26;24;16
70243;PMS7003;57634;51.136;17.024;2023-03-19T03:59:34;21;18;12
70243;PMS7003;57634;51.136;17.024;2023-03-19T04:02:35;22;20;15
70243;PMS7003;57634;51.136;17.024;2023-03-19T04:05:36;28;26;17
70243;PMS7003;57634;51.136;17.024;2023-03-19T04:08:38;28;25;15
70243;PMS7003;57634;51.136;17.024;2023-03-19T04:11:40;24;22;17
70243;PMS7003;57634;51.136;17.024;2023-03-19T04:15:09;25;23;15
70243;PMS7003;57634;51.136;17.024;2023-03-19T04:18:12;23;22;15
70243;PMS7003;57634;51.136;17.024;2023-03-19T04:21:13;31;24;14
70243;PMS7003;57634;51.136;17.024;2023-03-19T04:24:15;32;28;19
70243;PMS7003;57634;51.136;17.024;2023-03-19T04:27:16;29;26;18
70243;PMS7003;57634;51.136;17.024;2023-03-19T04:30:17;28;23;13
70243;PMS7003;57634;51.136;17.024;2023-03-19T04:33:20;26;24;15
70243;PMS7003;57634;51.136;17.024;2023-03-19T04:36:21;25;24;17
70243;PMS7003;57634;51.136;17.024;2023-03-19T04:39:23;26;23;15
70243;PMS7003;57634;51.136;17.024;2023-03-19T04:42:25;25;23;16
70243;PMS7003;57634;51.136;17.024;2023-03-19T04:45:26;32;23;17
70243;PMS7003;57634;51.136;17.024;2023-03-19T04:48:28;25;23;16
70243;PMS7003;57634;51.136;17.024;2023-03-19T04:51:29;26;22;14
70243;PMS7003;57634;51.136;17.024;2023-03-19T04:54:30;29;22;14
70243;PMS7003;57634;51.136;17.024;2023-03-19T04:57:58;25;23;18
70243;PMS7003;57634;51.136;17.024;2023-03-19T05:01:01;33;27;19
70243;PMS7003;57634;51.136;17.024;2023-03-19T05:04:03;26;24;15
70243;PMS7003;57634;51.136;17.024;2023-03-19T05:07:05;26;23;16
70243;PMS7003;57634;51.136;17.024;2023-03-19T05:10:08;26;22;15
70243;PMS7003;57634;51.136;17.024;2023-03-19T05:13:11;24;20;12
70243;PMS7003;57634;51.136;17.024;2023-03-19T05:16:12;20;18;11
70243;PMS7003;57634;51.136;17.024;2023-03-19T05:19:14;26;24;17
70243;PMS7003;57634;51.136;17.024;2023-03-19T05:22:15;29;22;14
70243;PMS7003;57634;51.136;17.024;2023-03-19T05:25:16;25;23;17
70243;PMS7003;57634;51.136;17.024;2023-03-19T05:28:18;31;25;16
70243;PMS7003;57634;51.136;17.024;2023-03-19T05:31:20;29;26;16
70243;PMS7003;57634;51.136;17.024;2023-03-19T05:34:21;23;21;14
70243;PMS7003;57634;51.136;17.024;2023-03-19T05:37:50;28;23;16
70243;PMS7003;57634;51.136;17.024;2023-03-19T05:40:51;22;21;14
70243;PMS7003;57634;51.136;17.024;2023-03-19T05:43:52;29;25;16
70243;PMS7003;57634;51.136;17.024;2023-03-19T05:46:53;25;21;15
70243;PMS7003;57634;51.136;17.024;2023-03-19T05:49:55;25;23;16
70243;PMS7003;57634;51.136;17.024;2023-03-19T05:52:57;14;11;7
70243;PMS7003;57634;51.136;17.024;2023-03-19T05:55:59;40;32;21
70243;PMS7003;57634;51.136;17.024;2023-03-19T05:59:00;35;29;20
70243;PMS7003;57634;51.136;17.024;2023-03-19T06:02:01;28;26;18
70243;PMS7003;57634;51.136;17.024;2023-03-19T06:05:03;31;28;19
70243;PMS7003;57634;51.136;17.024;2023-03-19T06:08:04;31;27;18
70243;PMS7003;57634;51.136;17.024;2023-03-19T06:11:07;33;29;20
70243;PMS7003;57634;51.136;17.024;2023-03-19T06:14:08;30;27;19
70243;PMS7003;57634;51.136;17.024;2023-03-19T06:17:11;31;27;18
70243;PMS7003;57634;51.136;17.024;2023-03-19T06:20:39;30;29;19
70243;PMS7003;57634;51.136;17.024;2023-03-19T06:23:41;28;26;18
70243;PMS7003;57634;51.136;17.024;2023-03-19T06:26:42;30;28;20
70243;PMS7003;57634;51.136;17.024;2023-03-19T06:29:43;29;28;19
70243;PMS7003;57634;51.136;17.024;2023-03-19T06:32:44;32;27;20
70243;PMS7003;57634;51.136;17.024;2023-03-19T06:35:47;33;27;19
70243;PMS7003;57634;51.136;17.024;2023-03-19T06:38:49;39;34;22
70243;PMS7003;57634;51.136;17.024;2023-03-19T06:41:51;33;30;21
70243;PMS7003;57634;51.136;17.024;2023-03-19T06:44:52;45;37;24
70243;PMS7003;57634;51.136;17.024;2023-03-19T06:47:53;33;30;20
70243;PMS7003;57634;51.136;17.024;2023-03-19T06:50:54;32;28;19
70243;PMS7003;57634;51.136;17.024;2023-03-19T06:53:56;30;28;20
70243;PMS7003;57634;51.136;17.024;2023-03-19T06:56:57;35;30;20
70243;PMS7003;57634;51.136;17.024;2023-03-19T06:59:59;32;28;18
70243;PMS7003;57634;51.136;17.024;2023-03-19T07:03:28;34;31;20
70243;PMS7003;57634;51.136;17.024;2023-03-19T07:06:30;29;27;20
70243;PMS7003;57634;51.136;17.024;2023-03-19T07:09:34;35;30;20
70243;PMS7003;57634;51.136;17.024;2023-03-19T07:12:35;27;26;18
70243;PMS7003;57634;51.136;17.024;2023-03-19T07:15:37;24;22;10
70243;PMS7003;57634;51.136;17.024;2023-03-19T07:18:39;23;22;17
70243;PMS7003;57634;51.136;17.024;2023-03-19T07:21:40;26;24;18
70243;PMS7003;57634;51.136;17.024;2023-03-19T07:24:42;22;22;16
70243;PMS7003;57634;51.136;17.024;2023-03-19T07:27:43;25;25;16
70243;PMS7003;57634;51.136;17.024;2023-03-19T07:30:45;22;20;15
70243;PMS7003;57634;51.136;17.024;2023-03-19T07:33:46;28;27;20
70243;PMS7003;57634;51.136;17.024;2023-03-19T07:36:48;23;22;15
70243;PMS7003;57634;51.136;17.024;2023-03-19T07:39:49;24;22;15
70243;PMS7003;57634;51.136;17.024;2023-03-19T07:42:51;27;26;18
70243;PMS7003;57634;51.136;17.024;2023-03-19T07:46:18;26;25;16
70243;PMS7003;57634;51.136;17.024;2023-03-19T07:49:21;23;22;16
70243;PMS7003;57634;51.136;17.024;2023-03-19T07:52:23;10;7;5
70243;PMS7003;57634;51.136;17.024;2023-03-19T07:55:26;5;3;2
70243;PMS7003;57634;51.136;17.024;2023-03-19T07:58:27;24;22;15
70243;PMS7003;57634;51.136;17.024;2023-03-19T08:01:28;21;19;13
70243;PMS7003;57634;51.136;17.024;2023-03-19T08:04:30;24;21;14
70243;PMS7003;57634;51.136;17.024;2023-03-19T08:07:32;21;18;13
70243;PMS7003;57634;51.136;17.024;2023-03-19T08:10:34;25;21;15
70243;PMS7003;57634;51.136;17.024;2023-03-19T08:13:35;25;23;16
70243;PMS7003;57634;51.136;17.024;2023-03-19T08:16:37;22;21;15
70243;PMS7003;57634;51.136;17.024;2023-03-19T08:19:38;22;20;15
70243;PMS7003;57634;51.136;17.024;2023-03-19T08:22:39;20;20;14
70243;PMS7003;57634;51.136;17.024;2023-03-19T08:26:09;27;25;17
70243;PMS7003;57634;51.136;17.024;2023-03-19T08:29:11;20;18;14
70243;PMS7003;57634;51.136;17.024;2023-03-19T08:32:12;22;19;14
70243;PMS7003;57634;51.136;17.024;2023-03-19T08:35:14;19;18;12
70243;PMS7003;57634;51.136;17.024;2023-03-19T08:38:15;22;19;14
70243;PMS7003;57634;51.136;17.024;2023-03-19T08:41:17;26;24;15
70243;PMS7003;57634;51.136;17.024;2023-03-19T08:44:18;16;13;9
70243;PMS7003;57634;51.136;17.024;2023-03-19T08:47:19;21;21;15
70243;PMS7003;57634;51.136;17.024;2023-03-19T08:50:24;20;19;14
70243;PMS7003;57634;51.136;17.024;2023-03-19T08:53:25;20;19;13
70243;PMS7003;57634;51.136;17.024;2023-03-19T08:56:27;22;21;14
70243;PMS7003;57634;51.136;17.024;2023-03-19T08:59:28;19;18;13
70243;PMS7003;57634;51.136;17.024;2023-03-19T09:02:31;19;19;13
70243;PMS7003;57634;51.136;17.024;2023-03-19T09:05:32;23;21;15
70243;PMS7003;57634;51.136;17.024;2023-03-19T09:08:59;20;19;13
70243;PMS7003;57634;51.136;17.024;2023-03-19T09:12:01;17;15;11
70243;PMS7003;57634;51.136;17.024;2023-03-19T09:15:02;19;17;11
70243;PMS7003;57634;51.136;17.024;2023-03-19T09:18:04;16;15;11
70243;PMS7003;57634;51.136;17.024;2023-03-19T09:21:06;17;14;11
70243;PMS7003;57634;51.136;17.024;2023-03-19T09:24:07;25;22;19
70243;PMS7003;57634;51.136;17.024;2023-03-19T09:27:08;21;18;12
70243;PMS7003;57634;51.136;17.024;2023-03-19T09:30:11;20;19;14
70243;PMS7003;57634;51.136;17.024;2023-03-19T09:33:14;20;20;12
70243;PMS7003;57634;51.136;17.024;2023-03-19T09:36:16;21;20;14
70243;PMS7003;57634;51.136;17.024;2023-03-19T09:39:18;17;17;12
70243;PMS7003;57634;51.136;17.024;2023-03-19T09:45:57;15;14;10
70243;PMS7003;57634;51.136;17.024;2023-03-19T09:49:05;18;16;11
70243;PMS7003;57634;51.136;17.024;2023-03-19T09:58:43;16;14;10
70243;PMS7003;57634;51.136;17.024;2023-03-19T10:02:22;17;16;10
70243;PMS7003;57634;51.136;17.024;2023-03-19T10:08:45;14;14;11
70243;PMS7003;57634;51.136;17.024;2023-03-19T10:15:33;12;11;9
70243;PMS7003;57634;51.136;17.024;2023-03-19T10:18:38;12;11;9
70243;PMS7003;57634;51.136;17.024;2023-03-19T10:21:51;13;12;9
70243;PMS7003;57634;51.136;17.024;2023-03-19T10:24:56;15;14;10
70243;PMS7003;57634;51.136;17.024;2023-03-19T10:27:59;14;13;9
70243;PMS7003;57634;51.136;17.024;2023-03-19T10:34:51;16;13;9
70243;PMS7003;57634;51.136;17.024;2023-03-19T10:37:54;13;13;9
70243;PMS7003;57634;51.136;17.024;2023-03-19T10:40:59;10;10;8
70243;PMS7003;57634;51.136;17.024;2023-03-19T10:44:09;11;11;8
70243;PMS7003;57634;51.136;17.024;2023-03-19T10:47:16;10;9;8
70243;PMS7003;57634;51.136;17.024;2023-03-19T10:50:20;14;13;9
70243;PMS7003;57634;51.136;17.024;2023-03-19T10:53:31;19;18;12
70243;PMS7003;57634;51.136;17.024;2023-03-19T10:57:00;10;10;8
70243;PMS7003;57634;51.136;17.024;2023-03-19T11:00:04;11;10;8
70243;PMS7003;57634;51.136;17.024;2023-03-19T11:03:25;9;9;8
70243;PMS7003;57634;51.136;17.024;2023-03-19T11:06:25;15;12;9
70243;PMS7003;57634;51.136;17.024;2023-03-19T11:09:36;12;12;9
70243;PMS7003;57634;51.136;17.024;2023-03-19T11:12:39;11;10;8
70243;PMS7003;57634;51.136;17.024;2023-03-19T11:15:41;13;12;8
70243;PMS7003;57634;51.136;17.024;2023-03-19T11:22:23;12;12;9
70243;PMS7003;57634;51.136;17.024;2023-03-19T11:25:34;12;11;8
70243;PMS7003;57634;51.136;17.024;2023-03-19T11:28:41;7;6;4
70243;PMS7003;57634;51.136;17.024;2023-03-19T11:38:44;13;11;8
70243;PMS7003;57634;51.136;17.024;2023-03-19T11:55:17;13;12;8
70243;PMS7003;57634;51.136;17.024;2023-03-19T12:02:11;10;10;7
70243;PMS7003;57634;51.136;17.024;2023-03-19T12:05:17;12;11;8
70243;PMS7003;57634;51.136;17.024;2023-03-19T12:28:49;22;20;13
70243;PMS7003;57634;51.136;17.024;2023-03-19T12:35:15;16;16;12
70243;PMS7003;57634;51.136;17.024;2023-03-19T12:42:03;14;14;10
70243;PMS7003;57634;51.136;17.024;2023-03-19T12:48:26;14;14;11
70243;PMS7003;57634;51.136;17.024;2023-03-19T12:51:37;15;12;9
70243;PMS7003;57634;51.136;17.024;2023-03-19T12:54:47;14;12;9
70243;PMS7003;57634;51.136;17.024;2023-03-19T12:58:23;13;13;9
70243;PMS7003;57634;51.136;17.024;2023-03-19T13:01:41;7;6;3
70243;PMS7003;57634;51.136;17.024;2023-03-19T13:21:24;16;13;9
70243;PMS7003;57634;51.136;17.024;2023-03-19T13:24:33;16;15;10
70243;PMS7003;57634;51.136;17.024;2023-03-19T13:28:17;15;15;11
70243;PMS7003;57634;51.136;17.024;2023-03-19T13:34:27;15;13;10
70243;PMS7003;57634;51.136;17.024;2023-03-19T13:37:32;14;14;10
70243;PMS7003;57634;51.136;17.024;2023-03-19T13:40:37;15;14;11
70243;PMS7003;57634;51.136;17.024;2023-03-19T13:43:51;13;12;8
70243;PMS7003;57634;51.136;17.024;2023-03-19T14:03:58;14;13;8
70243;PMS7003;57634;51.136;17.024;2023-03-19T14:13:28;14;13;10
70243;PMS7003;57634;51.136;17.024;2023-03-19T14:17:02;17;16;11
70243;PMS7003;57634;51.136;17.024;2023-03-19T14:23:20;12;11;8
70243;PMS7003;57634;51.136;17.024;2023-03-19T14:26:26;12;8;8
70243;PMS7003;57634;51.136;17.024;2023-03-19T14:29:31;10;9;6
70243;PMS7003;57634;51.136;17.024;2023-03-19T14:32:35;15;14;10
70243;PMS7003;57634;51.136;17.024;2023-03-19T14:35:44;7;7;5
70243;PMS7003;57634;51.136;17.024;2023-03-19T14:42:31;13;10;7
70243;PMS7003;57634;51.136;17.024;2023-03-19T14:45:40;11;10;8
70243;PMS7003;57634;51.136;17.024;2023-03-19T14:52:35;12;11;8
70243;PMS7003;57634;51.136;17.024;2023-03-19T14:55:48;12;10;9
70243;PMS7003;57634;51.136;17.024;2023-03-19T14:58:52;10;10;7
70243;PMS7003;57634;51.136;17.024;2023-03-19T15:01:54;12;11;8
70243;PMS7003;57634;51.136;17.024;2023-03-19T15:04:56;10;10;7
70243;PMS7003;57634;51.136;17.024;2023-03-19T15:08:03;10;9;8
70243;PMS7003;57634;51.136;17.024;2023-03-19T15:18:10;15;14;10
70243;PMS7003;57634;51.136;17.024;2023-03-19T15:21:13;13;12;9
70243;PMS7003;57634;51.136;17.024;2023-03-19T15:24:17;13;12;9
70243;PMS7003;57634;51.136;17.024;2023-03-19T15:27:22;13;11;8
70243;PMS7003;57634;51.136;17.024;2023-03-19T15:30:25;12;12;9
70243;PMS7003;57634;51.136;17.024;2023-03-19T15:33:32;13;13;9
70243;PMS7003;57634;51.136;17.024;2023-03-19T15:37:03;13;12;9
70243;PMS7003;57634;51.136;17.024;2023-03-19T15:40:09;11;11;9
70243;PMS7003;57634;51.136;17.024;2023-03-19T15:43:22;11;10;7
70243;PMS7003;57634;51.136;17.024;2023-03-19T15:46:24;13;11;8
70243;PMS7003;57634;51.136;17.024;2023-03-19T15:49:40;15;13;10
70243;PMS7003;57634;51.136;17.024;2023-03-19T15:52:47;13;12;10
70243;PMS7003;57634;51.136;17.024;2023-03-19T15:56:19;15;15;11
70243;PMS7003;57634;51.136;17.024;2023-03-19T15:59:22;12;12;9
70243;PMS7003;57634;51.136;17.024;2023-03-19T16:02:30;12;12;8
70243;PMS7003;57634;51.136;17.024;2023-03-19T16:05:32;11;11;8
70243;PMS7003;57634;51.136;17.024;2023-03-19T16:08:34;13;13;8
70243;PMS7003;57634;51.136;17.024;2023-03-19T16:14:45;13;11;9
70243;PMS7003;57634;51.136;17.024;2023-03-19T16:17:47;13;12;9
70243;PMS7003;57634;51.136;17.024;2023-03-19T16:24:31;16;15;11
70243;PMS7003;57634;51.136;17.024;2023-03-19T16:27:38;15;15;11
70243;PMS7003;57634;51.136;17.024;2023-03-19T16:30:45;18;15;10
70243;PMS7003;57634;51.136;17.024;2023-03-19T16:33:48;18;16;12
70243;PMS7003;57634;51.136;17.024;2023-03-19T16:36:54;19;19;14
70243;PMS7003;57634;51.136;17.024;2023-03-19T16:39:56;17;17;12
70243;PMS7003;57634;51.136;17.024;2023-03-19T16:43:11;18;15;12
70243;PMS7003;57634;51.136;17.024;2023-03-19T16:46:43;24;24;15
70243;PMS7003;57634;51.136;17.024;2023-03-19T16:49:45;25;22;15
70243;PMS7003;57634;51.136;17.024;2023-03-19T16:52:47;26;23;16
70243;PMS7003;57634;51.136;17.024;2023-03-19T16:55:51;26;24;16
70243;PMS7003;57634;51.136;17.024;2023-03-19T16:58:55;30;26;19
70243;PMS7003;57634;51.136;17.024;2023-03-19T17:02:01;28;24;17
70243;PMS7003;57634;51.136;17.024;2023-03-19T17:05:08;29;25;18
70243;PMS7003;57634;51.136;17.024;2023-03-19T17:08:15;26;25;17
70243;PMS7003;57634;51.136;17.024;2023-03-19T17:11:20;24;23;16
70243;PMS7003;57634;51.136;17.024;2023-03-19T17:14:53;27;25;18
70243;PMS7003;57634;51.136;17.024;2023-03-19T17:17:54;29;27;18
70243;PMS7003;57634;51.136;17.024;2023-03-19T17:27:23;26;25;18
70243;PMS7003;57634;51.136;17.024;2023-03-19T17:30:28;22;22;16
70243;PMS7003;57634;51.136;17.024;2023-03-19T17:33:30;26;25;17
70243;PMS7003;57634;51.136;17.024;2023-03-19T17:36:32;25;22;17
70243;PMS7003;57634;51.136;17.024;2023-03-19T17:39:59;24;24;16
70243;PMS7003;57634;51.136;17.024;2023-03-19T17:43:00;23;21;16
70243;PMS7003;57634;51.136;17.024;2023-03-19T17:46:01;24;23;16
70243;PMS7003;57634;51.136;17.024;2023-03-19T17:49:03;21;20;16
70243;PMS7003;57634;51.136;17.024;2023-03-19T17:55:17;45;38;27
70243;PMS7003;57634;51.136;17.024;2023-03-19T17:58:20;31;28;19
70243;PMS7003;57634;51.136;17.024;2023-03-19T18:01:26;28;26;18
70243;PMS7003;57634;51.136;17.024;2023-03-19T18:04:28;31;28;19
70243;PMS7003;57634;51.136;17.024;2023-03-19T18:07:29;33;29;20
70243;PMS7003;57634;51.136;17.024;2023-03-19T18:10:30;31;29;20
70243;PMS7003;57634;51.136;17.024;2023-03-19T18:14:00;32;29;20
70243;PMS7003;57634;51.136;17.024;2023-03-19T18:17:01;37;32;20
70243;PMS7003;57634;51.136;17.024;2023-03-19T18:20:03;40;35;23
70243;PMS7003;57634;51.136;17.024;2023-03-19T18:23:06;42;35;23
70243;PMS7003;57634;51.136;17.024;2023-03-19T18:26:08;35;31;21
70243;PMS7003;57634;51.136;17.024;2023-03-19T18:29:11;37;31;21
70243;PMS7003;57634;51.136;17.024;2023-03-19T18:32:14;40;32;22
70243;PMS7003;57634;51.136;17.024;2023-03-19T18:35:27;41;33;22
70243;PMS7003;57634;51.136;17.024;2023-03-19T18:38:34;37;32;22
70243;PMS7003;57634;51.136;17.024;2023-03-19T18:42:03;59;49;32
70243;PMS7003;57634;51.136;17.024;2023-03-19T18:45:05;60;49;33
70243;PMS7003;57634;51.136;17.024;2023-03-19T18:51:20;64;50;33
70243;PMS7003;57634;51.136;17.024;2023-03-19T18:54:21;48;40;26
70243;PMS7003;57634;51.136;17.024;2023-03-19T18:57:23;38;33;23
70243;PMS7003;57634;51.136;17.024;2023-03-19T19:03:37;37;33;22
70243;PMS7003;57634;51.136;17.024;2023-03-19T19:06:39;36;30;22
70243;PMS7003;57634;51.136;17.024;2023-03-19T19:10:10;66;53;32
70243;PMS7003;57634;51.136;17.024;2023-03-19T19:13:13;64;51;32
70243;PMS7003;57634;51.136;17.024;2023-03-19T19:16:24;55;44;29
70243;PMS7003;57634;51.136;17.024;2023-03-19T19:19:31;47;40;26
70243;PMS7003;57634;51.136;17.024;2023-03-19T19:22:32;63;50;32
70243;PMS7003;57634;51.136;17.024;2023-03-19T19:25:33;59;46;30
70243;PMS7003;57634;51.136;17.024;2023-03-19T19:28:36;50;42;28
70243;PMS7003;57634;51.136;17.024;2023-03-19T19:31:39;47;39;25
70243;PMS7003;57634;51.136;17.024;2023-03-19T19:34:41;47;37;24
70243;PMS7003;57634;51.136;17.024;2023-03-19T19:37:42;46;36;24
70243;PMS7003;57634;51.136;17.024;2023-03-19T19:41:11;43;36;24
70243;PMS7003;57634;51.136;17.024;2023-03-19T19:44:15;48;36;23
70243;PMS7003;57634;51.136;17.024;2023-03-19T19:47:19;37;32;23
70243;PMS7003;57634;51.136;17.024;2023-03-19T19:50:20;43;36;26
70243;PMS7003;57634;51.136;17.024;2023-03-19T19:53:27;47;39;26
70243;PMS7003;57634;51.136;17.024;2023-03-19T19:56:30;44;36;24
70243;PMS7003;57634;51.136;17.024;2023-03-19T19:59:31;46;38;25
70243;PMS7003;57634;51.136;17.024;2023-03-19T20:02:33;48;40;26
70243;PMS7003;57634;51.136;17.024;2023-03-19T20:05:34;46;38;25
70243;PMS7003;57634;51.136;17.024;2023-03-19T20:08:35;51;40;27
70243;PMS7003;57634;51.136;17.024;2023-03-19T20:11:38;55;43;28
70243;PMS7003;57634;51.136;17.024;2023-03-19T20:14:39;49;39;26
70243;PMS7003;57634;51.136;17.024;2023-03-19T20:18:09;49;41;27
70243;PMS7003;57634;51.136;17.024;2023-03-19T20:21:16;50;41;27
70243;PMS7003;57634;51.136;17.024;2023-03-19T20:24:17;55;44;29
70243;PMS7003;57634;51.136;17.024;2023-03-19T20:27:20;51;42;28
70243;PMS7003;57634;51.136;17.024;2023-03-19T20:30:27;53;42;28
70243;PMS7003;57634;51.136;17.024;2023-03-19T20:33:30;52;40;27
70243;PMS7003;57634;51.136;17.024;2023-03-19T20:36:34;49;41;25
70243;PMS7003;57634;51.136;17.024;2023-03-19T20:39:36;56;44;30
70243;PMS7003;57634;51.136;17.024;2023-03-19T20:42:37;48;39;27
70243;PMS7003;57634;51.136;17.024;2023-03-19T20:45:40;51;42;27
70243;PMS7003;57634;51.136;17.024;2023-03-19T20:49:11;50;41;27
70243;PMS7003;57634;51.136;17.024;2023-03-19T20:52:14;52;43;28
70243;PMS7003;57634;51.136;17.024;2023-03-19T20:55:17;51;41;27
70243;PMS7003;57634;51.136;17.024;2023-03-19T20:58:22;43;34;24
70243;PMS7003;57634;51.136;17.024;2023-03-19T21:01:27;61;48;32
70243;PMS7003;57634;51.136;17.024;2023-03-19T21:04:28;62;49;32
70243;PMS7003;57634;51.136;17.024;2023-03-19T21:07:32;62;50;33
70243;PMS7003;57634;51.136;17.024;2023-03-19T21:10:38;56;46;31
70243;PMS7003;57634;51.136;17.024;2023-03-19T21:13:44;58;47;31
70243;PMS7003;57634;51.136;17.024;2023-03-19T21:17:13;57;46;30
70243;PMS7003;57634;51.136;17.024;2023-03-19T21:20:15;47;38;25
70243;PMS7003;57634;51.136;17.024;2023-03-19T21:23:22;50;36;25
70243;PMS7003;57634;51.136;17.024;2023-03-19T21:26:30;49;40;27
70243;PMS7003;57634;51.136;17.024;2023-03-19T21:29:36;49;41;27
70243;PMS7003;57634;51.136;17.024;2023-03-19T21:32:38;52;43;29
70243;PMS7003;57634;51.136;17.024;2023-03-19T21:35:39;48;38;25
70243;PMS7003;57634;51.136;17.024;2023-03-19T21:38:41;50;40;27
70243;PMS7003;57634;51.136;17.024;2023-03-19T21:41:42;49;41;27
70243;PMS7003;57634;51.136;17.024;2023-03-19T21:44:46;48;40;26
70243;PMS7003;57634;51.136;17.024;2023-03-19T21:48:20;44;36;26
70243;PMS7003;57634;51.136;17.024;2023-03-19T21:51:28;45;37;25
70243;PMS7003;57634;51.136;17.024;2023-03-19T21:54:29;48;40;27
70243;PMS7003;57634;51.136;17.024;2023-03-19T21:57:31;49;41;27
70243;PMS7003;57634;51.136;17.024;2023-03-19T22:00:32;50;41;28
70243;PMS7003;57634;51.136;17.024;2023-03-19T22:03:34;51;42;27
70243;PMS7003;57634;51.136;17.024;2023-03-19T22:06:35;53;42;28
70243;PMS7003;57634;51.136;17.024;2023-03-19T22:09:38;47;39;27
70243;PMS7003;57634;51.136;17.024;2023-03-19T22:12:40;51;40;26
70243;PMS7003;57634;51.136;17.024;2023-03-19T22:15:42;50;39;25
70243;PMS7003;57634;51.136;17.024;2023-03-19T22:18:44;49;40;27
70243;PMS7003;57634;51.136;17.024;2023-03-19T22:22:14;52;43;28
70243;PMS7003;57634;51.136;17.024;2023-03-19T22:25:16;48;40;28
70243;PMS7003;57634;51.136;17.024;2023-03-19T22:31:34;49;41;26
70243;PMS7003;57634;51.136;17.024;2023-03-19T22:34:36;53;43;27
70243;PMS7003;57634;51.136;17.024;2023-03-19T22:37:37;49;39;27
70243;PMS7003;57634;51.136;17.024;2023-03-19T22:40:39;45;37;22